Time;durP1;ratioP1;P1;durP2;ratioP2;P2;SDS_P1;SDS_P2;PMS_P1;PMS_P2;Temp;Humidity;BMP_temperature;BMP_pressure;BME280_temperature;BME280_humidity;BME280_pressure;Samples;Min_cycle;Max_cycle;Signal;HPM_P1;HPM_P2
2023/11/20 04:48:35;;;;;;;17.38;1.70;;;10.10;99.90;;;;;;5844092;22;93093;-81
2023/11/20 05:55:23;;;;;;;17.13;2.40;;;9.90;99.90;;;;;;5489329;23;88487;-80
2023/11/20 05:57:50;;;;;;;16.05;2.53;;;9.90;99.90;;;;;;4959297;28;86960;-80
2023/11/20 06:10:38;;;;;;;21.27;2.20;;;9.80;99.90;;;;;;5663813;22;89527;-81
2023/11/20 06:13:04;;;;;;;25.15;2.72;;;9.90;99.90;;;;;;4915842;28;87362;-80
2023/11/20 07:33:07;;;;;;;16.73;1.73;;;10.30;99.90;;;;;;4899705;28;87848;-80
2023/11/20 07:35:51;;;;;;;11.93;1.88;;;10.30;99.90;;;;;;4922891;28;87532;-81
2023/11/20 07:38:28;;;;;;;11.40;2.17;;;10.30;99.90;;;;;;4913754;28;90085;-81
2023/11/20 07:41:02;;;;;;;18.20;1.75;;;10.30;99.90;;;;;;4901802;28;91247;-80
2023/11/20 07:43:28;;;;;;;9.57;1.60;;;10.30;99.90;;;;;;4897380;28;88175;-80
2023/11/20 08:45:33;;;;;;;11.75;1.67;;;10.50;99.90;;;;;;4904522;28;87696;-80
2023/11/20 08:48:05;;;;;;;12.93;1.63;;;10.50;99.90;;;;;;4901569;28;87683;-80
2023/11/20 08:50:31;;;;;;;9.27;1.33;;;10.60;99.90;;;;;;4906210;28;87918;-79
2023/11/20 08:52:56;;;;;;;10.45;1.50;;;10.50;99.90;;;;;;4895024;28;94999;-79
2023/11/20 08:55:23;;;;;;;9.30;1.42;;;10.50;99.90;;;;;;4883696;28;89149;-80
2023/11/20 08:57:48;;;;;;;10.70;1.48;;;10.50;99.90;;;;;;4879322;28;87838;-79
2023/11/20 09:00:16;;;;;;;10.18;1.13;;;10.50;99.90;;;;;;4886370;28;90645;-79
2023/11/20 09:02:43;;;;;;;14.55;1.40;;;10.50;99.90;;;;;;4899662;28;90247;-78
2023/11/20 09:05:10;;;;;;;10.27;1.48;;;10.50;99.90;;;;;;4884366;28;89679;-78
2023/11/20 09:07:36;;;;;;;8.18;1.00;;;10.50;99.90;;;;;;4884338;28;89047;-79
2023/11/20 09:10:04;;;;;;;5.93;0.75;;;10.50;99.90;;;;;;4885163;28;88070;-78
2023/11/20 09:12:30;;;;;;;16.77;1.52;;;10.50;99.90;;;;;;4899104;28;91483;-79
2023/11/20 09:14:56;;;;;;;8.07;1.10;;;10.50;99.90;;;;;;4884414;28;91320;-78
2023/11/20 09:17:21;;;;;;;7.82;1.27;;;10.50;99.90;;;;;;4883522;28;87726;-79
2023/11/20 09:19:47;;;;;;;8.50;1.30;;;10.50;99.90;;;;;;4883507;28;88164;-79
2023/11/20 09:22:14;;;;;;;10.40;1.38;;;10.50;99.90;;;;;;4883695;28;91560;-79
2023/11/20 09:24:40;;;;;;;11.15;1.70;;;10.50;99.90;;;;;;4885518;28;88687;-78
2023/11/20 09:27:10;;;;;;;7.32;1.42;;;10.60;99.90;;;;;;4886158;28;87788;-80
2023/11/20 09:29:36;;;;;;;13.05;1.60;;;10.60;99.90;;;;;;4888785;28;88169;-77
2023/11/20 09:32:05;;;;;;;9.68;1.30;;;10.60;99.90;;;;;;4885291;28;91272;-78
2023/11/20 09:34:31;;;;;;;10.00;1.67;;;10.60;99.90;;;;;;4886627;28;89300;-79
2023/11/20 09:36:57;;;;;;;8.15;1.38;;;10.60;99.90;;;;;;4887339;28;88360;-79
2023/11/20 09:39:22;;;;;;;9.23;1.50;;;10.70;99.90;;;;;;4890319;28;88864;-79
2023/11/20 09:41:48;;;;;;;8.15;1.88;;;10.70;99.90;;;;;;4890983;28;88211;-79
2023/11/20 09:44:14;;;;;;;7.10;2.33;;;10.70;99.90;;;;;;4890457;28;88717;-78
2023/11/20 09:46:46;;;;;;;9.55;1.45;;;10.70;99.90;;;;;;4888148;28;87806;-78
2023/11/20 09:49:25;;;;;;;10.48;1.42;;;10.70;99.90;;;;;;4890676;28;87431;-78
2023/11/20 09:51:55;;;;;;;7.80;1.63;;;10.70;99.90;;;;;;4889876;28;88774;-79
2023/11/20 09:54:21;;;;;;;10.75;1.23;;;10.80;99.90;;;;;;4887840;28;89675;-78
2023/11/20 09:56:47;;;;;;;8.82;1.48;;;10.80;99.90;;;;;;4889378;28;88975;-78
2023/11/20 09:59:13;;;;;;;10.73;1.30;;;10.80;99.90;;;;;;4887210;28;88076;-79
2023/11/20 10:01:43;;;;;;;7.30;1.08;;;10.90;99.90;;;;;;4887683;28;91695;-77
2023/11/20 10:04:13;;;;;;;11.48;1.92;;;11.00;99.90;;;;;;4904956;28;87950;-80
2023/11/20 10:06:40;;;;;;;10.18;1.50;;;11.00;99.90;;;;;;4901884;28;87294;-80
2023/11/20 10:09:07;;;;;;;7.07;1.48;;;11.00;99.90;;;;;;4901730;28;90313;-80
2023/11/20 10:11:36;;;;;;;8.40;1.60;;;11.10;99.90;;;;;;4903571;28;87453;-80
2023/11/20 10:14:01;;;;;;;8.15;1.83;;;11.10;99.90;;;;;;4903544;28;86911;-80
2023/11/20 10:16:32;;;;;;;6.78;1.20;;;11.10;99.90;;;;;;4907800;28;87452;-80
2023/11/20 10:18:58;;;;;;;8.10;0.93;;;11.20;99.90;;;;;;4906230;28;88268;-80
2023/11/20 10:21:25;;;;;;;9.10;1.23;;;11.20;99.90;;;;;;4901729;28;90221;-80
2023/11/20 10:23:52;;;;;;;6.32;1.27;;;11.20;99.90;;;;;;4910071;28;90965;-80
2023/11/20 10:26:18;;;;;;;5.40;1.58;;;11.20;99.90;;;;;;4909465;28;87187;-81
2023/11/20 10:28:45;;;;;;;9.32;1.20;;;11.20;99.90;;;;;;4905793;28;90808;-81
2023/11/20 10:31:10;;;;;;;11.73;1.42;;;11.30;99.90;;;;;;4910239;28;88206;-81
2023/11/20 10:33:36;;;;;;;7.22;1.20;;;11.30;99.90;;;;;;4906333;28;89392;-81
2023/11/20 10:36:11;;;;;;;8.00;1.23;;;11.30;99.90;;;;;;4909401;28;87057;-80
2023/11/20 10:38:37;;;;;;;8.55;1.45;;;11.30;99.90;;;;;;4906434;28;87267;-80
2023/11/20 10:41:04;;;;;;;12.70;1.55;;;11.40;99.90;;;;;;5109107;22;90832;-80
2023/11/20 10:48:41;;;;;;;7.97;1.00;;;11.40;99.90;;;;;;5533029;22;88503;-76
2023/11/20 12:19:11;;;;;;;13.82;2.38;;;12.00;99.90;;;;;;5217232;22;89657;-81
2023/11/20 12:21:42;;;;;;;12.85;1.75;;;12.00;99.90;;;;;;4941520;28;86553;-81
2023/11/20 12:24:19;;;;;;;10.82;2.42;;;12.00;99.90;;;;;;4944536;28;89485;-81
2023/11/20 12:26:45;;;;;;;13.55;2.00;;;11.90;99.90;;;;;;4943479;28;87823;-81
2023/11/20 12:29:12;;;;;;;14.88;2.17;;;11.90;99.90;;;;;;4937426;28;88345;-81
2023/11/20 12:31:38;;;;;;;13.20;1.67;;;11.90;99.90;;;;;;4931727;28;89427;-81
2023/11/20 12:34:07;;;;;;;13.80;2.00;;;11.90;99.90;;;;;;4939947;28;88926;-81
2023/11/20 12:36:35;;;;;;;13.75;2.75;;;11.90;99.90;;;;;;4941193;28;89063;-82
2023/11/20 12:39:01;;;;;;;14.27;2.58;;;11.80;99.90;;;;;;4939522;28;87430;-81
2023/11/20 14:53:32;;;;;;;4.18;0.95;;;10.70;99.90;;;;;;2542809;22;88576;-81
2023/11/20 14:58:36;;;;;;;5.88;0.88;;;10.60;99.90;;;;;;5221244;22;88890;-80
2023/11/20 15:01:05;;;;;;;9.05;1.35;;;10.60;99.90;;;;;;4933785;28;87528;-82
2023/11/20 15:03:32;;;;;;;5.50;1.05;;;10.50;99.90;;;;;;4936382;28;88153;-81
2023/11/20 15:06:01;;;;;;;7.47;1.40;;;10.50;99.90;;;;;;4921697;28;87201;-81
2023/11/20 15:08:26;;;;;;;4.97;0.93;;;10.50;99.90;;;;;;4943012;28;88316;-80
2023/11/20 15:10:52;;;;;;;6.32;1.00;;;10.50;99.90;;;;;;4939065;28;86925;-81
2023/11/20 15:13:23;;;;;;;5.50;1.30;;;10.50;99.90;;;;;;4934336;28;86969;-81
2023/11/20 15:15:49;;;;;;;3.20;0.55;;;10.50;99.90;;;;;;4917626;28;87139;-80
2023/11/20 15:18:15;;;;;;;8.00;1.30;;;10.50;99.90;;;;;;4925916;28;90558;-82
2023/11/20 21:00:35;;;;;;;70.45;16.70;;;8.60;99.90;;;;;;6047596;22;88706;31
2023/11/20 21:03:02;;;;;;;101.50;18.45;;;8.50;99.90;;;;;;4888757;28;87707;-80
2023/11/20 21:05:29;;;;;;;101.20;18.70;;;8.50;99.90;;;;;;4899566;28;87692;-80
2023/11/20 21:18:16;;;;;;;54.30;20.55;;;8.50;99.90;;;;;;5660707;22;89974;-80
2023/11/20 21:20:43;;;;;;;66.47;22.25;;;8.50;99.90;;;;;;4906079;28;90327;-80
2023/11/20 22:20:10;;;;;;;52.22;20.83;;;8.60;99.90;;;;;;5737580;22;88852;-80
